Time;durP1;ratioP1;P1;durP2;ratioP2;P2;SDS_P1;SDS_P2;PMS_P1;PMS_P2;Temp;Humidity;BMP_temperature;BMP_pressure;BME280_temperature;BME280_humidity;BME280_pressure;Samples;Min_cycle;Max_cycle;Signal;HPM_P1;HPM_P2
2022/05/04 00:00:09;;;;;;;9.90;2.70;;;;;;;;;;6189177;23;20195;-86
2022/05/04 00:02:35;;;;;;;13.18;2.95;;;;;;;;;;6189056;23;20016;-86
2022/05/04 00:05:01;;;;;;;11.43;2.70;;;;;;;;;;6188821;23;20016;-86
2022/05/04 00:07:27;;;;;;;8.13;2.65;;;;;;;;;;6188953;23;20074;-86
2022/05/04 00:09:53;;;;;;;9.23;2.90;;;;;;;;;;6188906;23;20100;-86
2022/05/04 00:12:19;;;;;;;8.85;2.20;;;;;;;;;;6189196;23;20044;-86
2022/05/04 00:14:45;;;;;;;10.65;3.10;;;;;;;;;;6188925;23;20023;-86
2022/05/04 00:17:11;;;;;;;9.82;2.50;;;;;;;;;;6188953;23;20016;-87
2022/05/04 00:19:37;;;;;;;9.30;2.40;;;;;;;;;;6188656;23;20012;-86
2022/05/04 00:22:03;;;;;;;11.80;2.70;;;;;;;;;;6188873;23;20008;-87
2022/05/04 00:24:29;;;;;;;10.50;2.38;;;;;;;;;;6189275;23;20044;-86
2022/05/04 00:26:55;;;;;;;9.15;2.35;;;;;;;;;;6188333;23;20027;-86
2022/05/04 00:29:21;;;;;;;9.48;1.90;;;;;;;;;;6188908;23;20016;-87
2022/05/04 00:31:47;;;;;;;10.00;3.10;;;;;;;;;;6188509;23;20079;-86
2022/05/04 00:34:13;;;;;;;11.75;2.60;;;;;;;;;;6188890;23;20510;-87
2022/05/04 00:36:39;;;;;;;10.60;2.58;;;;;;;;;;6188468;23;20044;-87
2022/05/04 00:39:05;;;;;;;9.90;2.20;;;;;;;;;;6215745;23;20032;-86
2022/05/04 00:41:31;;;;;;;11.68;2.28;;;;;;;;;;6188418;23;20020;-86
2022/05/04 00:43:57;;;;;;;10.73;2.63;;;;;;;;;;6188918;23;20055;-87
2022/05/04 00:46:23;;;;;;;12.25;2.40;;;;;;;;;;6188291;23;20434;-86
2022/05/04 00:48:49;;;;;;;11.13;2.35;;;;;;;;;;6188820;23;20067;-86
2022/05/04 00:51:15;;;;;;;10.48;2.53;;;;;;;;;;6188365;23;20383;-86
2022/05/04 00:53:42;;;;;;;13.63;2.30;;;;;;;;;;6188337;23;20018;-86
2022/05/04 00:56:09;;;;;;;7.93;2.30;;;;;;;;;;6188454;23;20058;-86
2022/05/04 00:58:54;;;;;;;9.70;2.25;;;;;;;;;;6188540;23;20311;-87
2022/05/04 01:01:21;;;;;;;9.82;2.40;;;;;;;;;;6163486;23;20526;-86
2022/05/04 01:03:47;;;;;;;8.63;2.10;;;;;;;;;;6188673;23;20021;-86
2022/05/04 01:06:13;;;;;;;10.27;2.40;;;;;;;;;;6188266;23;20477;-86
2022/05/04 01:08:39;;;;;;;8.70;2.30;;;;;;;;;;6188463;23;20023;-86
2022/05/04 01:11:05;;;;;;;9.13;2.70;;;;;;;;;;6188247;23;20091;-86
2022/05/04 01:13:31;;;;;;;13.27;2.60;;;;;;;;;;6188565;23;20017;-86
2022/05/04 01:15:57;;;;;;;11.55;2.72;;;;;;;;;;6188287;23;20021;-86
2022/05/04 01:18:23;;;;;;;13.23;2.60;;;;;;;;;;6188366;23;20091;-86
2022/05/04 01:20:49;;;;;;;9.65;2.47;;;;;;;;;;6188361;23;20020;-86
2022/05/04 01:23:17;;;;;;;10.60;2.67;;;;;;;;;;6188401;23;20016;-87
2022/05/04 01:25:43;;;;;;;10.35;2.55;;;;;;;;;;6188706;23;20024;-87
2022/05/04 01:28:09;;;;;;;11.57;2.70;;;;;;;;;;6187980;23;20030;-86
2022/05/04 01:30:35;;;;;;;11.52;2.85;;;;;;;;;;6188213;23;20043;-87
2022/05/04 01:33:01;;;;;;;9.18;2.50;;;;;;;;;;6163542;23;20028;-87
2022/05/04 01:35:29;;;;;;;10.02;2.33;;;;;;;;;;6163452;23;20092;-87
2022/05/04 01:37:55;;;;;;;8.65;2.25;;;;;;;;;;6188147;23;20008;-86
2022/05/04 01:40:21;;;;;;;10.45;2.55;;;;;;;;;;6163177;23;20043;-88
2022/05/04 01:42:47;;;;;;;8.75;2.30;;;;;;;;;;6188102;23;20097;-87
2022/05/04 01:45:13;;;;;;;10.23;2.70;;;;;;;;;;6188348;23;20012;-86
2022/05/04 01:47:39;;;;;;;11.30;2.30;;;;;;;;;;6187947;23;20015;-86
2022/05/04 01:50:05;;;;;;;7.97;2.28;;;;;;;;;;6188348;23;20013;-86
2022/05/04 01:52:31;;;;;;;8.27;2.60;;;;;;;;;;6188037;23;20017;-87
2022/05/04 01:55:00;;;;;;;9.73;2.30;;;;;;;;;;6163565;23;20019;-87
2022/05/04 01:57:27;;;;;;;9.77;2.13;;;;;;;;;;6187891;23;20013;-86
2022/05/04 01:59:53;;;;;;;8.70;2.45;;;;;;;;;;6188233;23;20013;-87
2022/05/04 02:02:20;;;;;;;14.80;3.20;;;;;;;;;;6187998;23;20116;-86
2022/05/04 02:04:46;;;;;;;7.47;2.30;;;;;;;;;;6189746;23;20083;-87
2022/05/04 02:07:12;;;;;;;8.80;2.60;;;;;;;;;;6164926;23;20016;-86
2022/05/04 02:09:38;;;;;;;7.00;2.30;;;;;;;;;;6190663;23;20009;-86
2022/05/04 02:12:04;;;;;;;9.30;2.38;;;;;;;;;;6189723;23;20442;-86
2022/05/04 02:14:32;;;;;;;8.45;2.70;;;;;;;;;;6190201;23;20005;-86
2022/05/04 02:16:58;;;;;;;10.70;2.78;;;;;;;;;;6190066;23;20083;-86
2022/05/04 02:19:24;;;;;;;10.50;2.50;;;;;;;;;;6190220;23;20454;-86
2022/05/04 02:21:50;;;;;;;15.10;2.58;;;;;;;;;;6189829;23;20028;-86
2022/05/04 02:24:16;;;;;;;10.50;2.35;;;;;;;;;;6190195;23;20024;-86
2022/05/04 02:26:42;;;;;;;8.85;2.25;;;;;;;;;;6160350;23;20029;-86
2022/05/04 02:29:08;;;;;;;9.55;2.78;;;;;;;;;;6160384;23;20056;-86
2022/05/04 02:31:34;;;;;;;11.70;2.50;;;;;;;;;;6159735;23;20476;-86
2022/05/04 02:34:00;;;;;;;9.32;2.30;;;;;;;;;;6160182;23;20015;-85
2022/05/04 02:39:10;;;;;;;10.63;2.95;;;;;;;;;;6160178;23;20157;-86
2022/05/04 02:41:36;;;;;;;9.73;2.15;;;;;;;;;;6186447;23;20380;-86
2022/05/04 02:44:02;;;;;;;10.30;2.28;;;;;;;;;;6160222;23;20017;-86
2022/05/04 02:46:28;;;;;;;10.63;2.15;;;;;;;;;;6159684;23;20043;-86
2022/05/04 02:48:55;;;;;;;9.95;3.38;;;;;;;;;;6160054;23;20439;-86
2022/05/04 02:51:21;;;;;;;8.65;2.80;;;;;;;;;;6134982;23;20032;-87
2022/05/04 02:53:47;;;;;;;8.38;2.15;;;;;;;;;;6159917;23;20009;-86
2022/05/04 02:56:15;;;;;;;7.60;2.17;;;;;;;;;;6159718;23;20063;-86
2022/05/04 02:58:42;;;;;;;9.18;1.90;;;;;;;;;;6159825;23;20048;-86
2022/05/04 03:03:57;;;;;;;9.95;2.47;;;;;;;;;;6159955;23;20016;-86
2022/05/04 03:06:23;;;;;;;12.30;2.50;;;;;;;;;;6159526;23;20446;-86
2022/05/04 03:08:49;;;;;;;9.35;2.53;;;;;;;;;;6135417;23;20021;-87
2022/05/04 03:14:00;;;;;;;8.98;2.55;;;;;;;;;;6159885;23;20017;-85
2022/05/04 03:16:26;;;;;;;7.28;2.15;;;;;;;;;;6158960;23;20013;-86
2022/05/04 03:18:52;;;;;;;10.50;1.83;;;;;;;;;;6159807;23;20378;-86
2022/05/04 03:21:18;;;;;;;10.85;2.60;;;;;;;;;;6159663;23;20077;-86
2022/05/04 03:23:44;;;;;;;8.65;2.38;;;;;;;;;;6159603;23;20013;-86
2022/05/04 03:26:10;;;;;;;12.07;2.25;;;;;;;;;;6159580;23;20016;-86
2022/05/04 03:28:36;;;;;;;9.10;2.70;;;;;;;;;;6187299;23;20342;-86
2022/05/04 03:31:02;;;;;;;11.07;2.30;;;;;;;;;;6189236;23;20092;-86
2022/05/04 03:33:28;;;;;;;10.68;2.70;;;;;;;;;;6216067;23;20008;-87
2022/05/04 03:35:54;;;;;;;8.57;2.40;;;;;;;;;;6189427;23;20091;-88
2022/05/04 03:38:20;;;;;;;10.43;2.80;;;;;;;;;;6189045;23;20012;-86
2022/05/04 03:40:46;;;;;;;8.82;2.40;;;;;;;;;;6189465;23;20454;-87
2022/05/04 03:43:12;;;;;;;13.82;2.75;;;;;;;;;;6164213;23;20020;-86
2022/05/04 03:45:38;;;;;;;8.52;2.63;;;;;;;;;;6164540;23;20070;-87
2022/05/04 03:48:04;;;;;;;10.63;3.15;;;;;;;;;;6164129;23;20055;-87
2022/05/04 03:50:30;;;;;;;9.73;2.40;;;;;;;;;;6189301;23;20013;-86
2022/05/04 03:52:56;;;;;;;14.20;2.95;;;;;;;;;;6188940;23;20019;-86
2022/05/04 03:55:22;;;;;;;9.95;2.97;;;;;;;;;;6189121;23;20254;-87
2022/05/04 03:57:50;;;;;;;9.88;2.67;;;;;;;;;;6164014;23;20017;-86
2022/05/04 04:00:16;;;;;;;8.35;2.25;;;;;;;;;;6189109;23;20019;-87
2022/05/04 04:02:42;;;;;;;10.38;2.95;;;;;;;;;;6188795;23;20024;-86
2022/05/04 04:05:08;;;;;;;9.15;3.10;;;;;;;;;;6189165;23;20062;-86
2022/05/04 04:07:34;;;;;;;12.95;3.05;;;;;;;;;;6188617;23;20103;-86
2022/05/04 04:10:00;;;;;;;11.00;2.78;;;;;;;;;;6215741;23;20397;-87
2022/05/04 04:12:26;;;;;;;11.63;2.60;;;;;;;;;;6188799;23;20012;-86
2022/05/04 04:14:52;;;;;;;13.73;4.20;;;;;;;;;;6164200;23;20091;-86
2022/05/04 04:17:18;;;;;;;13.20;3.10;;;;;;;;;;6164659;23;20016;-87
2022/05/04 04:19:44;;;;;;;10.23;2.88;;;;;;;;;;6189944;23;20442;-86
2022/05/04 04:22:10;;;;;;;11.68;2.78;;;;;;;;;;6215666;23;20050;-87
2022/05/04 04:24:36;;;;;;;10.55;2.85;;;;;;;;;;6189205;23;20067;-86
2022/05/04 04:27:02;;;;;;;11.38;3.33;;;;;;;;;;6180099;23;20024;-86
2022/05/04 04:29:28;;;;;;;11.07;2.85;;;;;;;;;;6134487;23;20017;-87
2022/05/04 04:31:54;;;;;;;7.25;2.40;;;;;;;;;;6134410;23;20024;-86
2022/05/04 04:34:20;;;;;;;8.88;2.65;;;;;;;;;;6158897;23;20013;-87
2022/05/04 04:36:46;;;;;;;11.73;2.67;;;;;;;;;;6158979;23;20157;-86
2022/05/04 04:39:12;;;;;;;10.00;2.55;;;;;;;;;;6158822;23;20324;-86
2022/05/04 04:41:39;;;;;;;10.68;2.20;;;;;;;;;;6159475;23;20100;-87
2022/05/04 04:44:05;;;;;;;14.60;3.17;;;;;;;;;;6158638;23;20376;-87
2022/05/04 04:46:31;;;;;;;10.80;3.10;;;;;;;;;;6158851;23;20024;-86
2022/05/04 04:48:58;;;;;;;12.98;3.20;;;;;;;;;;6158815;23;20020;-87
2022/05/04 04:51:24;;;;;;;10.73;2.72;;;;;;;;;;6134314;23;20044;-87
2022/05/04 04:53:50;;;;;;;11.25;3.28;;;;;;;;;;6158836;23;20447;-87
2022/05/04 04:56:16;;;;;;;13.43;3.13;;;;;;;;;;6134165;23;20399;-87
2022/05/04 04:58:42;;;;;;;15.27;2.70;;;;;;;;;;6159100;23;20013;-88
2022/05/04 05:01:08;;;;;;;10.40;2.83;;;;;;;;;;6159005;23;20017;-88
2022/05/04 05:03:34;;;;;;;19.00;3.13;;;;;;;;;;6158736;23;20071;-87
2022/05/04 05:06:00;;;;;;;9.07;2.60;;;;;;;;;;6134515;23;20017;-87
2022/05/04 05:08:26;;;;;;;11.20;2.75;;;;;;;;;;6158508;23;20017;-87
2022/05/04 05:10:52;;;;;;;12.25;2.58;;;;;;;;;;6134105;23;20048;-88
2022/05/04 05:13:18;;;;;;;12.18;2.67;;;;;;;;;;6133949;23;20064;-87
2022/05/04 05:18:28;;;;;;;9.10;2.65;;;;;;;;;;6185112;23;20013;-87
2022/05/04 05:20:54;;;;;;;12.07;2.80;;;;;;;;;;6158616;23;20403;-86
2022/05/04 05:23:20;;;;;;;11.18;2.85;;;;;;;;;;6158456;23;20025;-88
2022/05/04 05:25:46;;;;;;;11.52;2.78;;;;;;;;;;6158629;23;20439;-86
2022/05/04 05:28:12;;;;;;;11.32;2.20;;;;;;;;;;6155963;23;20036;-87
2022/05/04 05:30:39;;;;;;;8.60;2.42;;;;;;;;;;6189636;23;20021;-87
2022/05/04 05:33:05;;;;;;;11.00;2.85;;;;;;;;;;6189084;23;20074;-87
2022/05/04 05:35:31;;;;;;;8.55;2.38;;;;;;;;;;6189121;23;20013;-86
2022/05/04 05:37:57;;;;;;;7.22;2.10;;;;;;;;;;6188390;23;20020;-86
2022/05/04 05:40:23;;;;;;;11.93;2.47;;;;;;;;;;6191623;23;20016;-86
2022/05/04 05:42:49;;;;;;;10.23;2.63;;;;;;;;;;6191359;23;20020;-86
2022/05/04 05:45:15;;;;;;;8.15;2.13;;;;;;;;;;6191716;23;20012;-87
2022/05/04 05:47:41;;;;;;;10.85;2.10;;;;;;;;;;6191524;23;20481;-86
2022/05/04 05:50:08;;;;;;;11.40;3.08;;;;;;;;;;6218349;23;20016;-88
2022/05/04 05:52:34;;;;;;;11.20;2.47;;;;;;;;;;6190779;23;20009;-87
2022/05/04 05:55:00;;;;;;;15.38;2.88;;;;;;;;;;6163856;23;20088;-85
2022/05/04 05:57:26;;;;;;;10.60;2.65;;;;;;;;;;6164062;23;20056;-87
2022/05/04 05:59:52;;;;;;;8.90;2.20;;;;;;;;;;6188972;23;20021;-87
2022/05/04 06:02:19;;;;;;;13.02;2.53;;;;;;;;;;6188868;23;20102;-87
2022/05/04 06:04:46;;;;;;;13.40;2.95;;;;;;;;;;6163909;23;20016;-86
2022/05/04 06:07:12;;;;;;;10.30;2.38;;;;;;;;;;6188877;23;20021;-86
2022/05/04 06:09:38;;;;;;;12.15;2.47;;;;;;;;;;6188680;23;20012;-87
2022/05/04 06:12:04;;;;;;;7.38;2.33;;;;;;;;;;6188742;23;20024;-86
2022/05/04 06:14:30;;;;;;;11.75;2.40;;;;;;;;;;6164055;23;20016;-86
2022/05/04 06:16:56;;;;;;;11.13;2.50;;;;;;;;;;6189191;23;20019;-88
2022/05/04 06:19:22;;;;;;;8.23;2.00;;;;;;;;;;6188964;23;20334;-87
2022/05/04 06:21:48;;;;;;;12.82;2.70;;;;;;;;;;6164090;23;20016;-87
2022/05/04 06:24:14;;;;;;;11.43;2.10;;;;;;;;;;6163909;23;20040;-87
2022/05/04 06:26:40;;;;;;;8.20;2.08;;;;;;;;;;6184766;23;20365;-86
2022/05/04 06:29:06;;;;;;;11.75;2.42;;;;;;;;;;6158885;23;20076;-87
2022/05/04 06:34:20;;;;;;;6.57;2.17;;;;;;;;;;6158872;23;20016;-86
2022/05/04 06:36:46;;;;;;;8.45;2.17;;;;;;;;;;6158980;23;20092;-86
2022/05/04 06:39:12;;;;;;;8.45;2.20;;;;;;;;;;6158902;23;20024;-87
2022/05/04 06:41:38;;;;;;;10.50;2.00;;;;;;;;;;6158868;23;20096;-87
2022/05/04 06:44:05;;;;;;;13.73;2.28;;;;;;;;;;6158815;23;20024;-88
2022/05/04 06:46:31;;;;;;;9.50;2.10;;;;;;;;;;6158816;23;20013;-87
2022/05/04 06:48:57;;;;;;;9.40;2.08;;;;;;;;;;6134337;23;20055;-88
2022/05/04 06:51:23;;;;;;;7.50;1.75;;;;;;;;;;6156693;23;20067;-86
2022/05/04 06:53:49;;;;;;;9.48;2.08;;;;;;;;;;6183992;23;20013;-86
2022/05/04 06:56:15;;;;;;;11.07;2.28;;;;;;;;;;6157327;23;20017;-87
2022/05/04 06:58:42;;;;;;;8.77;2.10;;;;;;;;;;6132415;23;20013;-86
2022/05/04 07:01:10;;;;;;;9.50;2.10;;;;;;;;;;6157261;23;20048;-87
2022/05/04 07:03:37;;;;;;;8.25;1.83;;;;;;;;;;6157015;23;20044;-85
2022/05/04 07:06:03;;;;;;;9.95;1.83;;;;;;;;;;6157120;23;20019;-86
2022/05/04 07:08:30;;;;;;;7.20;2.05;;;;;;;;;;6156973;23;20013;-87
2022/05/04 07:10:56;;;;;;;9.65;2.45;;;;;;;;;;6132192;23;20017;-86
2022/05/04 07:13:23;;;;;;;10.00;1.98;;;;;;;;;;6157269;23;20346;-86
2022/05/04 07:15:50;;;;;;;7.40;1.85;;;;;;;;;;6156996;23;20132;-87
2022/05/04 07:18:16;;;;;;;8.98;1.98;;;;;;;;;;6132427;23;20013;-87
2022/05/04 07:20:42;;;;;;;11.50;2.28;;;;;;;;;;6156996;23;20032;-87
2022/05/04 07:23:08;;;;;;;9.55;1.77;;;;;;;;;;6157101;23;20017;-87
2022/05/04 07:25:34;;;;;;;11.32;2.88;;;;;;;;;;6132349;23;20048;-87
2022/05/04 07:28:00;;;;;;;9.68;2.10;;;;;;;;;;6177106;23;20028;-87
2022/05/04 07:30:27;;;;;;;13.02;3.42;;;;;;;;;;6186668;23;20024;-87
2022/05/04 07:32:52;;;;;;;8.30;2.22;;;;;;;;;;6186808;23;20048;-86
2022/05/04 07:35:18;;;;;;;8.77;2.17;;;;;;;;;;6186651;23;20363;-87
2022/05/04 07:37:45;;;;;;;8.45;2.15;;;;;;;;;;6186472;23;20015;-86
2022/05/04 07:42:56;;;;;;;7.47;1.90;;;;;;;;;;6215756;23;20439;-87
2022/05/04 07:45:22;;;;;;;10.73;2.17;;;;;;;;;;6188606;23;20517;-85
2022/05/04 07:47:48;;;;;;;8.20;1.63;;;;;;;;;;6189002;23;20024;-86
2022/05/04 07:50:14;;;;;;;9.27;1.92;;;;;;;;;;6189104;23;20333;-86
2022/05/04 07:52:41;;;;;;;9.38;2.20;;;;;;;;;;6189187;23;20299;-86
2022/05/04 07:55:08;;;;;;;10.13;1.90;;;;;;;;;;6188961;23;20043;-86
2022/05/04 07:57:34;;;;;;;9.10;1.95;;;;;;;;;;6188958;23;20020;-85
2022/05/04 08:05:33;;;;;;;10.40;2.00;;;;;;;;;;6188860;23;20013;-87
2022/05/04 08:07:59;;;;;;;10.13;2.22;;;;;;;;;;6188827;23;20520;-86
2022/05/04 08:10:25;;;;;;;9.38;2.05;;;;;;;;;;6188586;23;20013;-87
2022/05/04 08:12:52;;;;;;;7.60;2.17;;;;;;;;;;6163877;23;20446;-86
2022/05/04 08:15:18;;;;;;;4.90;1.48;;;;;;;;;;6188968;23;20058;-85
2022/05/04 08:17:44;;;;;;;9.38;1.67;;;;;;;;;;6188614;23;20020;-86
2022/05/04 08:20:10;;;;;;;15.32;2.30;;;;;;;;;;6188683;23;20017;-86
2022/05/04 08:22:36;;;;;;;8.63;2.25;;;;;;;;;;6188854;23;20342;-86
2022/05/04 08:25:02;;;;;;;8.18;1.90;;;;;;;;;;6188584;23;20025;-87
2022/05/04 08:27:31;;;;;;;8.68;2.28;;;;;;;;;;6188696;23;20087;-86
2022/05/04 08:29:57;;;;;;;7.20;2.17;;;;;;;;;;6163741;23;20017;-86
2022/05/04 08:32:26;;;;;;;8.48;2.28;;;;;;;;;;6187608;23;20280;-86
2022/05/04 08:34:52;;;;;;;8.38;2.15;;;;;;;;;;6188525;23;20016;-84
2022/05/04 08:37:18;;;;;;;6.88;1.80;;;;;;;;;;6188440;23;20011;-85
2022/05/04 08:39:44;;;;;;;12.13;2.13;;;;;;;;;;6215456;23;20330;-85
2022/05/04 08:42:13;;;;;;;10.60;1.80;;;;;;;;;;6188608;23;20468;-85
2022/05/04 08:44:40;;;;;;;8.23;1.63;;;;;;;;;;6163623;23;20445;-85
2022/05/04 08:47:09;;;;;;;8.35;1.90;;;;;;;;;;6186158;23;20027;-85
2022/05/04 08:49:36;;;;;;;9.93;2.15;;;;;;;;;;6163843;23;20013;-84
2022/05/04 08:52:02;;;;;;;7.25;2.10;;;;;;;;;;6188380;23;20020;-85
2022/05/04 08:54:28;;;;;;;7.05;2.13;;;;;;;;;;6188660;23;20067;-84
2022/05/04 08:56:54;;;;;;;7.00;2.03;;;;;;;;;;6188136;23;20012;-87
2022/05/04 08:59:20;;;;;;;11.02;2.42;;;;;;;;;;6188617;23;20023;-85
2022/05/04 09:01:46;;;;;;;11.45;2.28;;;;;;;;;;6188542;23;20080;-85
2022/05/04 09:04:12;;;;;;;12.05;2.30;;;;;;;;;;6188534;23;20025;-85
2022/05/04 09:06:43;;;;;;;10.80;1.98;;;;;;;;;;6188127;23;20446;-86
2022/05/04 09:09:13;;;;;;;14.38;2.10;;;;;;;;;;6215543;23;20016;-84
2022/05/04 09:11:40;;;;;;;13.60;2.75;;;;;;;;;;6188294;23;20031;-84
2022/05/04 09:14:20;;;;;;;7.63;2.00;;;;;;;;;;6188238;23;20024;-84
2022/05/04 09:16:46;;;;;;;9.43;2.17;;;;;;;;;;6215184;23;20008;-83
2022/05/04 09:19:13;;;;;;;6.32;1.95;;;;;;;;;;6189355;23;20066;-85
2022/05/04 09:21:40;;;;;;;11.43;2.38;;;;;;;;;;6188209;23;20020;-84
2022/05/04 09:24:06;;;;;;;7.82;2.00;;;;;;;;;;6215306;23;20017;-84
2022/05/04 09:26:35;;;;;;;7.38;2.20;;;;;;;;;;6185548;23;20098;-84
2022/05/04 09:29:04;;;;;;;8.30;2.13;;;;;;;;;;6185242;23;20382;-84
2022/05/04 09:31:31;;;;;;;14.57;3.05;;;;;;;;;;6158364;23;20017;-84
2022/05/04 09:33:58;;;;;;;6.32;2.58;;;;;;;;;;6158614;23;20032;-84
2022/05/04 09:36:31;;;;;;;10.80;2.05;;;;;;;;;;6158145;23;20040;-85
2022/05/04 09:47:19;;;;;;;9.05;2.00;;;;;;;;;;6158114;23;20021;-85
2022/05/04 09:49:46;;;;;;;11.50;2.75;;;;;;;;;;6158361;23;20350;-84
2022/05/04 09:52:14;;;;;;;10.98;2.33;;;;;;;;;;6133628;23;20066;-85
2022/05/04 09:54:40;;;;;;;11.52;2.17;;;;;;;;;;6133859;23;20012;-85
2022/05/04 09:57:06;;;;;;;11.82;2.38;;;;;;;;;;6158168;23;20016;-84
2022/05/04 09:59:34;;;;;;;8.93;2.30;;;;;;;;;;6158412;23;20451;-84
2022/05/04 10:02:01;;;;;;;7.43;2.10;;;;;;;;;;6156583;23;20438;-84
2022/05/04 10:04:28;;;;;;;10.30;2.40;;;;;;;;;;6158180;23;20028;-84
2022/05/04 10:06:54;;;;;;;8.93;1.98;;;;;;;;;;6157829;23;20021;-84
2022/05/04 10:09:21;;;;;;;10.18;2.22;;;;;;;;;;6185142;23;20014;-84
2022/05/04 10:11:56;;;;;;;10.85;2.45;;;;;;;;;;6158306;23;20017;-84
2022/05/04 10:14:22;;;;;;;8.23;2.00;;;;;;;;;;6158953;23;20013;-84
2022/05/04 10:16:55;;;;;;;11.93;2.78;;;;;;;;;;6157902;23;20342;-83
2022/05/04 10:19:23;;;;;;;6.75;2.47;;;;;;;;;;6158433;23;20044;-86
2022/05/04 10:21:51;;;;;;;12.55;3.00;;;;;;;;;;6157986;23;20028;-85
2022/05/04 10:24:18;;;;;;;9.23;1.90;;;;;;;;;;6158600;23;20021;-85
2022/05/04 10:26:45;;;;;;;8.60;2.28;;;;;;;;;;6185090;23;20021;-85
2022/05/04 10:32:30;;;;;;;9.27;2.50;;;;;;;;;;6186974;23;20024;-84
2022/05/04 10:35:29;;;;;;;10.07;2.10;;;;;;;;;;6186852;23;20429;-84
2022/05/04 10:37:57;;;;;;;8.75;2.60;;;;;;;;;;6121152;23;20346;-85
2022/05/04 10:40:24;;;;;;;10.15;2.45;;;;;;;;;;6159259;23;20009;-84
2022/05/04 10:42:57;;;;;;;7.93;2.75;;;;;;;;;;6159641;23;20020;-84
2022/05/04 10:45:31;;;;;;;11.40;2.70;;;;;;;;;;6160044;23;20022;-83
2022/05/04 10:48:15;;;;;;;8.70;2.50;;;;;;;;;;6159756;23;20088;-84
2022/05/04 10:50:47;;;;;;;7.93;2.25;;;;;;;;;;6159838;23;20017;-84
2022/05/04 10:53:21;;;;;;;9.98;2.45;;;;;;;;;;6160050;23;20280;-83
2022/05/04 10:55:59;;;;;;;11.18;2.50;;;;;;;;;;6186461;23;20024;-85
2022/05/04 10:58:38;;;;;;;10.50;2.65;;;;;;;;;;6159512;23;20017;-83
2022/05/04 11:01:07;;;;;;;13.02;2.60;;;;;;;;;;6159790;23;20115;-83
2022/05/04 11:03:36;;;;;;;6.38;2.13;;;;;;;;;;6159955;23;20447;-84
2022/05/04 11:06:03;;;;;;;8.82;2.33;;;;;;;;;;6159645;23;20021;-83
2022/05/04 11:08:36;;;;;;;7.18;2.33;;;;;;;;;;6159678;23;20447;-83
2022/05/04 11:11:05;;;;;;;9.18;2.40;;;;;;;;;;6186184;23;20020;-84
2022/05/04 11:13:32;;;;;;;10.73;2.85;;;;;;;;;;6159700;23;20457;-85
2022/05/04 11:15:59;;;;;;;7.85;2.60;;;;;;;;;;6159913;23;20013;-83
2022/05/04 11:18:27;;;;;;;7.65;3.05;;;;;;;;;;6159467;23;20016;-83
2022/05/04 11:20:54;;;;;;;9.75;2.80;;;;;;;;;;6135096;23;20052;-83
2022/05/04 11:23:23;;;;;;;10.65;2.50;;;;;;;;;;6186119;23;20088;-83
2022/05/04 11:25:50;;;;;;;7.82;2.55;;;;;;;;;;6159739;23;20017;-84
2022/05/04 11:28:20;;;;;;;7.65;2.42;;;;;;;;;;6182341;23;20028;-83
2022/05/04 11:30:46;;;;;;;6.93;2.85;;;;;;;;;;6188137;23;20071;-84
2022/05/04 11:33:15;;;;;;;9.57;2.80;;;;;;;;;;6189138;23;20020;-83
2022/05/04 11:35:45;;;;;;;11.45;2.63;;;;;;;;;;6189108;23;20008;-84
2022/05/04 11:38:18;;;;;;;8.95;3.10;;;;;;;;;;6215492;23;20363;-83
2022/05/04 11:40:45;;;;;;;10.15;2.97;;;;;;;;;;6189456;23;20027;-83
2022/05/04 11:43:21;;;;;;;13.77;3.00;;;;;;;;;;6188986;23;20084;-84
2022/05/04 11:45:47;;;;;;;9.27;2.83;;;;;;;;;;6189479;23;20366;-84
2022/05/04 11:48:13;;;;;;;7.75;2.85;;;;;;;;;;6215387;23;20012;-83
2022/05/04 11:50:42;;;;;;;9.20;2.85;;;;;;;;;;6189150;23;20053;-84
2022/05/04 11:53:08;;;;;;;9.32;3.00;;;;;;;;;;6188871;23;20017;-85
2022/05/04 11:55:37;;;;;;;9.98;2.95;;;;;;;;;;6189248;23;20023;-84
2022/05/04 11:58:14;;;;;;;11.65;3.20;;;;;;;;;;6188795;23;20012;-84
2022/05/04 12:00:41;;;;;;;11.50;2.70;;;;;;;;;;6189259;23;20012;-84
2022/05/04 12:03:07;;;;;;;10.23;2.78;;;;;;;;;;6188738;23;20079;-84
2022/05/04 12:05:34;;;;;;;10.73;3.20;;;;;;;;;;6189170;23;20457;-84
2022/05/04 12:08:01;;;;;;;10.65;2.95;;;;;;;;;;6188630;23;20450;-85
2022/05/04 12:10:28;;;;;;;12.05;3.28;;;;;;;;;;6164381;23;20442;-83
2022/05/04 12:12:54;;;;;;;10.80;3.20;;;;;;;;;;6215385;23;20118;-84
2022/05/04 12:15:23;;;;;;;7.72;2.78;;;;;;;;;;6189025;23;20446;-85
2022/05/04 12:17:50;;;;;;;11.30;3.00;;;;;;;;;;6188545;23;20020;-83
2022/05/04 12:20:21;;;;;;;11.90;2.70;;;;;;;;;;6188879;23;20013;-83
2022/05/04 12:22:47;;;;;;;9.30;2.90;;;;;;;;;;6188613;23;20337;-84
2022/05/04 12:25:13;;;;;;;8.88;2.85;;;;;;;;;;6164098;23;20012;-84
2022/05/04 12:27:39;;;;;;;7.00;2.45;;;;;;;;;;6188345;23;20013;-82
2022/05/04 12:33:09;;;;;;;7.85;2.80;;;;;;;;;;6215524;23;20012;-85
2022/05/04 12:35:36;;;;;;;9.32;2.85;;;;;;;;;;6215873;23;20036;-83
2022/05/04 12:38:03;;;;;;;17.50;3.15;;;;;;;;;;6188346;23;20048;-83
2022/05/04 12:40:30;;;;;;;8.93;2.90;;;;;;;;;;6164000;23;20091;-84
2022/05/04 12:42:57;;;;;;;11.48;2.80;;;;;;;;;;6215362;23;20017;-84
2022/05/04 12:45:24;;;;;;;10.68;2.75;;;;;;;;;;6163906;23;20047;-83
2022/05/04 12:47:50;;;;;;;8.90;2.80;;;;;;;;;;6187904;23;20436;-83
2022/05/04 12:50:16;;;;;;;8.68;2.65;;;;;;;;;;6188715;23;20055;-83
2022/05/04 12:52:43;;;;;;;8.95;3.20;;;;;;;;;;6188381;23;20021;-83
2022/05/04 12:55:08;;;;;;;10.57;2.85;;;;;;;;;;6188755;23;20020;-84
2022/05/04 12:57:34;;;;;;;9.18;2.90;;;;;;;;;;6188901;23;20008;-84
2022/05/04 13:00:00;;;;;;;8.55;2.63;;;;;;;;;;6188956;23;20063;-83
2022/05/04 13:02:26;;;;;;;9.43;3.28;;;;;;;;;;6188364;23;20021;-83
2022/05/04 13:04:52;;;;;;;9.57;3.33;;;;;;;;;;6215494;23;20016;-83
2022/05/04 13:07:18;;;;;;;9.63;2.95;;;;;;;;;;6188214;23;20159;-83
2022/05/04 13:09:45;;;;;;;9.43;3.03;;;;;;;;;;6188637;23;20009;-83
2022/05/04 13:12:11;;;;;;;12.07;2.88;;;;;;;;;;6188453;23;20070;-84
2022/05/04 13:14:38;;;;;;;9.73;3.05;;;;;;;;;;6188541;23;20009;-83
2022/05/04 13:17:04;;;;;;;8.07;2.97;;;;;;;;;;6215034;23;20082;-83
2022/05/04 13:19:30;;;;;;;10.98;3.15;;;;;;;;;;6163568;23;20016;-83
2022/05/04 13:21:56;;;;;;;6.93;2.47;;;;;;;;;;6164544;23;20024;-82
2022/05/04 13:24:22;;;;;;;8.88;2.53;;;;;;;;;;6189225;23;20016;-83
2022/05/04 13:26:48;;;;;;;10.13;2.67;;;;;;;;;;6188408;23;20037;-83
2022/05/04 13:29:14;;;;;;;10.07;2.72;;;;;;;;;;6215109;23;20088;-84
2022/05/04 13:31:41;;;;;;;11.88;3.00;;;;;;;;;;6188358;23;20417;-84
2022/05/04 13:34:07;;;;;;;7.68;2.78;;;;;;;;;;6188338;23;20019;-83
2022/05/04 13:36:33;;;;;;;9.20;2.50;;;;;;;;;;6163488;23;20023;-82
2022/05/04 13:38:59;;;;;;;9.30;2.95;;;;;;;;;;6188376;23;20016;-82
2022/05/04 13:41:25;;;;;;;9.85;3.15;;;;;;;;;;6188318;23;20098;-82
2022/05/04 13:43:52;;;;;;;9.30;2.78;;;;;;;;;;6185259;23;20046;-83
2022/05/04 13:46:18;;;;;;;9.13;3.03;;;;;;;;;;6188290;23;20017;-82
2022/05/04 13:48:44;;;;;;;17.33;3.85;;;;;;;;;;6215049;23;20023;-83
2022/05/04 13:53:56;;;;;;;11.40;2.67;;;;;;;;;;6214977;23;20016;-84
2022/05/04 13:56:22;;;;;;;12.38;3.15;;;;;;;;;;6214969;23;20044;-84
2022/05/04 13:58:48;;;;;;;12.63;3.30;;;;;;;;;;6188140;23;20013;-83
2022/05/04 14:01:14;;;;;;;8.45;2.63;;;;;;;;;;6190244;23;20020;-84
2022/05/04 14:03:40;;;;;;;8.45;2.92;;;;;;;;;;6190057;23;20021;-84
2022/05/04 14:06:06;;;;;;;8.27;2.83;;;;;;;;;;6190294;23;20506;-84
2022/05/04 14:08:32;;;;;;;10.40;2.85;;;;;;;;;;6189806;23;20442;-84
2022/05/04 14:10:59;;;;;;;12.45;3.13;;;;;;;;;;6190124;23;20446;-84
2022/05/04 14:13:27;;;;;;;7.72;2.88;;;;;;;;;;6216785;23;20009;-85
2022/05/04 14:15:58;;;;;;;13.57;3.60;;;;;;;;;;6190254;23;20533;-85
2022/05/04 14:18:25;;;;;;;10.85;3.35;;;;;;;;;;6140846;23;20013;-85
2022/05/04 14:20:52;;;;;;;12.07;3.05;;;;;;;;;;6190124;23;20012;-84
2022/05/04 14:23:18;;;;;;;7.60;2.72;;;;;;;;;;6189780;23;20346;-85
2022/05/04 14:25:44;;;;;;;10.27;3.45;;;;;;;;;;6190179;23;20087;-85
2022/05/04 14:28:10;;;;;;;13.48;3.50;;;;;;;;;;6189511;23;20051;-84
2022/05/04 14:30:37;;;;;;;8.68;3.35;;;;;;;;;;6189952;23;20369;-85
2022/05/04 14:33:03;;;;;;;10.82;3.50;;;;;;;;;;6189774;23;20009;-85
2022/05/04 14:35:29;;;;;;;9.73;3.33;;;;;;;;;;6186138;23;20020;-85
2022/05/04 14:37:55;;;;;;;11.30;3.78;;;;;;;;;;6189696;23;20008;-85
2022/05/04 14:40:23;;;;;;;11.30;3.45;;;;;;;;;;6189760;23;20012;-87
2022/05/04 14:42:51;;;;;;;12.15;3.47;;;;;;;;;;6165078;23;20513;-87
2022/05/04 14:45:17;;;;;;;11.38;3.15;;;;;;;;;;6189681;23;20017;-86
2022/05/04 14:47:43;;;;;;;9.27;3.55;;;;;;;;;;6188570;23;20088;-84
2022/05/04 14:50:09;;;;;;;11.13;3.20;;;;;;;;;;6164747;23;20098;-84
2022/05/04 14:52:35;;;;;;;12.52;3.10;;;;;;;;;;6215234;23;20017;-85
2022/05/04 14:55:01;;;;;;;10.68;3.35;;;;;;;;;;6164782;23;20341;-84
2022/05/04 14:57:27;;;;;;;12.63;3.50;;;;;;;;;;6188719;23;20075;-86
2022/05/04 14:59:53;;;;;;;10.50;3.40;;;;;;;;;;6165211;23;20094;-84
2022/05/04 15:02:19;;;;;;;11.02;3.50;;;;;;;;;;6189599;23;20450;-84
2022/05/04 15:05:03;;;;;;;9.13;3.13;;;;;;;;;;6187250;23;20016;-84
2022/05/04 15:07:30;;;;;;;9.27;3.22;;;;;;;;;;6214920;23;20013;-85
2022/05/04 15:09:56;;;;;;;11.20;3.42;;;;;;;;;;6189447;23;20016;-85
2022/05/04 15:12:22;;;;;;;7.30;2.83;;;;;;;;;;6188975;23;20024;-85